Time;durP1;ratioP1;P1;durP2;ratioP2;P2;SDS_P1;SDS_P2;PMS_P1;PMS_P2;Temp;Humidity;BMP_temperature;BMP_pressure;BME280_temperature;BME280_humidity;BME280_pressure;Samples;Min_cycle;Max_cycle;Signal;HPM_P1;HPM_P2
2023/03/22 00:00:50;;;;;;;16.90;11.85;;;12.90;99.90;;;;;;5091588;28;20036;-76
2023/03/22 00:03:16;;;;;;;17.13;11.63;;;12.90;99.90;;;;;;5093727;28;20108;-77
2023/03/22 00:05:42;;;;;;;17.73;10.73;;;12.90;99.90;;;;;;5092096;28;20486;-76
2023/03/22 00:08:08;;;;;;;15.93;10.98;;;12.80;99.90;;;;;;5080035;28;20480;-76
2023/03/22 00:10:36;;;;;;;15.10;11.30;;;12.80;99.90;;;;;;5087627;28;20084;-76
2023/03/22 00:13:01;;;;;;;13.77;10.73;;;12.80;99.90;;;;;;5092631;28;20105;-76
2023/03/22 00:15:28;;;;;;;13.82;10.38;;;12.80;99.90;;;;;;5091684;28;20063;-76
2023/03/22 00:17:55;;;;;;;14.55;11.00;;;12.70;99.90;;;;;;5093382;28;20111;-74
2023/03/22 00:20:22;;;;;;;14.50;10.30;;;12.70;99.90;;;;;;5092194;28;20142;-76
2023/03/22 00:22:49;;;;;;;15.85;10.43;;;12.70;99.90;;;;;;5091402;28;20035;-76
2023/03/22 00:25:15;;;;;;;13.45;11.07;;;12.60;99.90;;;;;;5090315;28;20038;-76
2023/03/22 00:27:41;;;;;;;18.02;11.10;;;12.70;99.90;;;;;;5092018;28;20028;-75
2023/03/22 00:30:07;;;;;;;14.20;10.18;;;12.60;99.90;;;;;;5092001;28;20024;-75
2023/03/22 00:32:34;;;;;;;13.75;10.70;;;12.60;99.90;;;;;;5092214;28;20024;-76
2023/03/22 00:35:00;;;;;;;13.75;10.30;;;12.60;99.90;;;;;;5088676;28;20027;-75
2023/03/22 00:37:32;;;;;;;16.67;11.25;;;12.50;99.90;;;;;;5092324;28;20024;-74
2023/03/22 00:40:03;;;;;;;13.95;10.45;;;12.50;99.90;;;;;;5092881;28;20132;-75
2023/03/22 00:42:29;;;;;;;14.35;9.90;;;12.50;99.90;;;;;;5089777;28;20411;-74
2023/03/22 00:44:54;;;;;;;14.55;10.60;;;12.50;99.90;;;;;;5092136;28;20020;-74
2023/03/22 00:47:20;;;;;;;16.02;10.93;;;12.50;99.90;;;;;;5089611;28;20034;-74
2023/03/22 00:49:46;;;;;;;13.90;10.63;;;12.50;99.90;;;;;;5091749;28;20028;-73
2023/03/22 00:52:11;;;;;;;18.02;10.95;;;12.50;99.90;;;;;;5091465;28;20598;-73
2023/03/22 00:54:37;;;;;;;14.63;10.70;;;12.40;99.90;;;;;;5089870;28;20032;-74
2023/03/22 00:57:03;;;;;;;13.35;10.38;;;12.40;99.90;;;;;;5092055;28;20043;-74
2023/03/22 00:59:28;;;;;;;14.35;10.65;;;12.50;99.90;;;;;;5088155;28;20076;-74
2023/03/22 01:01:56;;;;;;;14.68;10.35;;;12.40;99.90;;;;;;5092011;28;20027;-74
2023/03/22 01:04:24;;;;;;;13.70;10.63;;;12.40;99.90;;;;;;5089291;28;20089;-74
2023/03/22 01:06:57;;;;;;;13.65;10.68;;;12.40;99.90;;;;;;5091134;28;20027;-74
2023/03/22 01:09:27;;;;;;;13.10;9.75;;;12.40;99.90;;;;;;5090258;28;20039;-75
2023/03/22 01:11:53;;;;;;;14.80;10.30;;;12.40;99.90;;;;;;5091220;28;20021;-75
2023/03/22 01:14:18;;;;;;;14.90;10.18;;;12.50;99.90;;;;;;5091166;28;20085;-75
2023/03/22 01:16:44;;;;;;;15.30;11.10;;;12.50;99.90;;;;;;5085760;28;20060;-75
2023/03/22 01:19:09;;;;;;;18.50;11.10;;;12.40;99.90;;;;;;5091410;28;20039;-75
2023/03/22 01:21:35;;;;;;;13.50;11.25;;;12.40;99.90;;;;;;5091372;28;20054;-75
2023/03/22 01:24:01;;;;;;;19.33;11.45;;;12.40;99.90;;;;;;5091451;28;20081;-75
2023/03/22 01:26:26;;;;;;;17.30;11.38;;;12.40;99.90;;;;;;5091857;28;20028;-73
2023/03/22 01:28:52;;;;;;;15.10;11.13;;;12.30;99.90;;;;;;5089910;28;20035;-74
2023/03/22 01:31:17;;;;;;;15.43;11.57;;;12.30;99.90;;;;;;5090214;28;20031;-74
2023/03/22 01:33:43;;;;;;;12.88;10.27;;;12.30;99.90;;;;;;5079408;28;20025;-74
2023/03/22 01:36:09;;;;;;;16.77;11.70;;;12.30;99.90;;;;;;5085863;28;20024;-73
2023/03/22 01:38:34;;;;;;;16.67;12.20;;;12.30;99.90;;;;;;5089719;28;20073;-74
2023/03/22 01:41:00;;;;;;;15.65;11.35;;;12.30;99.90;;;;;;5089794;28;20115;-74
2023/03/22 01:43:26;;;;;;;18.23;11.90;;;12.30;99.90;;;;;;5091991;28;20471;-75
2023/03/22 01:45:52;;;;;;;14.75;11.13;;;12.30;99.90;;;;;;5089882;28;20028;-74
2023/03/22 01:48:22;;;;;;;16.30;11.55;;;12.30;99.90;;;;;;5089066;28;20499;-74
2023/03/22 01:51:17;;;;;;;15.05;11.75;;;12.30;99.90;;;;;;5087193;28;20016;-74
2023/03/22 01:53:56;;;;;;;17.00;11.23;;;12.30;99.90;;;;;;5077759;28;20131;-75
2023/03/22 01:56:25;;;;;;;13.93;11.27;;;12.30;99.90;;;;;;5090661;28;20028;-76
2023/03/22 01:58:53;;;;;;;15.23;12.10;;;12.20;99.90;;;;;;5089617;28;20084;-76
2023/03/22 02:01:21;;;;;;;13.70;10.68;;;12.30;99.90;;;;;;5090344;28;20032;-76
2023/03/22 02:04:02;;;;;;;14.25;11.90;;;12.30;99.90;;;;;;5090551;28;20023;-76
2023/03/22 02:06:28;;;;;;;15.50;11.80;;;12.30;99.90;;;;;;5090626;28;20483;-76
2023/03/22 02:08:56;;;;;;;15.10;12.65;;;12.30;99.90;;;;;;5080637;28;20047;-76
2023/03/22 02:11:33;;;;;;;21.25;12.27;;;12.30;99.90;;;;;;5090733;28;20034;-76
2023/03/22 02:14:14;;;;;;;15.88;12.60;;;12.30;99.90;;;;;;5089131;28;20032;-75
2023/03/22 02:17:07;;;;;;;17.15;11.48;;;12.30;99.90;;;;;;5091708;28;20403;-76
2023/03/22 02:19:46;;;;;;;15.70;11.95;;;12.30;99.90;;;;;;5090659;28;20043;-75
2023/03/22 02:22:29;;;;;;;16.20;11.68;;;12.20;99.90;;;;;;5090464;28;20024;-75
2023/03/22 02:25:14;;;;;;;16.08;12.70;;;12.20;99.90;;;;;;5092470;28;20024;-75
2023/03/22 02:27:43;;;;;;;17.25;12.57;;;12.20;99.90;;;;;;5092413;28;20031;-76
2023/03/22 02:30:17;;;;;;;18.30;12.68;;;12.20;99.90;;;;;;5074509;28;20492;-75
2023/03/22 02:33:01;;;;;;;14.02;11.45;;;12.20;99.90;;;;;;5083124;28;20028;-75
2023/03/22 02:35:33;;;;;;;15.38;12.27;;;12.20;99.90;;;;;;5095496;28;20044;-76
2023/03/22 02:38:19;;;;;;;16.15;11.98;;;12.20;99.90;;;;;;5091250;28;21519;-76
2023/03/22 02:41:10;;;;;;;14.48;12.13;;;12.10;99.90;;;;;;5095452;28;20098;-75
2023/03/22 02:44:11;;;;;;;14.32;11.88;;;12.10;99.90;;;;;;5090638;28;20504;-76
2023/03/22 02:46:46;;;;;;;14.60;10.82;;;12.10;99.90;;;;;;5089155;28;20036;-75
2023/03/22 02:49:29;;;;;;;;;;;12.10;99.90;;;;;;5093991;28;20066;-76
2023/03/22 02:52:01;;;;;;;15.45;10.68;;;12.00;99.90;;;;;;5092390;28;19969;-76
2023/03/22 02:55:06;;;;;;;17.52;10.95;;;12.00;99.90;;;;;;5094961;28;20077;-75
2023/03/22 02:58:00;;;;;;;16.53;11.97;;;12.00;99.90;;;;;;5088959;28;20108;-77
2023/03/22 03:00:26;;;;;;;16.15;12.00;;;11.90;99.90;;;;;;5086047;28;20342;-75
2023/03/22 03:02:56;;;;;;;14.75;12.02;;;11.90;99.90;;;;;;5093524;28;20117;-77
2023/03/22 03:05:24;;;;;;;13.45;10.73;;;11.90;99.90;;;;;;5094094;28;20027;-77
2023/03/22 03:07:58;;;;;;;17.55;12.02;;;11.90;99.90;;;;;;5093194;28;20047;-77
2023/03/22 03:10:25;;;;;;;15.05;11.98;;;11.90;99.90;;;;;;5091199;28;20050;-76
2023/03/22 03:12:51;;;;;;;16.70;12.23;;;11.90;99.90;;;;;;5092862;28;20379;-77
2023/03/22 03:15:19;;;;;;;16.63;11.80;;;11.80;99.90;;;;;;5094747;28;20028;-76
2023/03/22 03:17:53;;;;;;;16.73;12.15;;;11.80;99.90;;;;;;5091873;28;20059;-75
2023/03/22 03:20:36;;;;;;;17.13;12.35;;;11.80;99.90;;;;;;5094214;28;20511;-77
2023/03/22 03:23:14;;;;;;;13.35;11.27;;;11.80;99.90;;;;;;5090885;28;20035;-77
2023/03/22 03:26:06;;;;;;;16.98;12.38;;;11.70;99.90;;;;;;5089384;28;20077;-77
2023/03/22 03:28:43;;;;;;;14.95;12.18;;;11.70;99.90;;;;;;5090628;28;20071;-77
2023/03/22 03:31:19;;;;;;;13.45;11.35;;;11.70;99.90;;;;;;5091467;28;20036;-77
2023/03/22 03:34:01;;;;;;;16.73;11.80;;;11.60;99.90;;;;;;5094023;28;20028;-77
2023/03/22 03:36:28;;;;;;;16.98;12.48;;;11.70;99.90;;;;;;5092429;28;20028;-77
2023/03/22 03:38:56;;;;;;;19.50;12.70;;;11.60;99.90;;;;;;5093401;28;20105;-77
2023/03/22 03:41:26;;;;;;;15.65;11.90;;;11.60;99.90;;;;;;5093051;28;20032;-77
2023/03/22 03:43:52;;;;;;;15.50;12.50;;;11.50;99.90;;;;;;5091627;28;20387;-77
2023/03/22 03:46:19;;;;;;;15.65;11.45;;;11.50;99.90;;;;;;5091853;28;20028;-78
2023/03/22 03:48:48;;;;;;;16.40;12.13;;;11.50;99.90;;;;;;5093320;28;20032;-76
2023/03/22 03:51:14;;;;;;;15.00;11.27;;;11.50;99.90;;;;;;5092733;28;20028;-77
2023/03/22 03:53:40;;;;;;;13.70;10.90;;;11.50;99.90;;;;;;5093925;28;20111;-77
2023/03/22 03:56:06;;;;;;;15.25;11.43;;;11.50;99.90;;;;;;5090436;28;20483;-78
2023/03/22 03:58:32;;;;;;;14.82;11.13;;;11.40;99.90;;;;;;5092742;28;20047;-77
2023/03/22 04:00:57;;;;;;;16.23;12.43;;;11.40;99.90;;;;;;5087461;28;20024;-79
2023/03/22 04:03:23;;;;;;;14.63;11.57;;;11.40;99.90;;;;;;5093178;28;20104;-77
2023/03/22 04:05:49;;;;;;;15.50;12.52;;;11.40;99.90;;;;;;5092990;28;20024;-78
2023/03/22 04:08:15;;;;;;;13.48;11.35;;;11.40;99.90;;;;;;5085756;28;20101;-76
2023/03/22 04:10:40;;;;;;;15.52;12.18;;;11.40;99.90;;;;;;5094026;28;20071;-77
2023/03/22 04:13:06;;;;;;;15.00;10.68;;;11.40;99.90;;;;;;5094542;28;20031;-76
2023/03/22 04:15:32;;;;;;;38.90;11.45;;;11.40;99.90;;;;;;5090352;28;20028;-77
2023/03/22 04:17:58;;;;;;;16.27;11.52;;;11.40;99.90;;;;;;5091919;28;20020;-76
2023/03/22 04:20:28;;;;;;;13.90;11.10;;;11.40;99.90;;;;;;5091076;28;20044;-76
2023/03/22 04:22:54;;;;;;;14.40;11.30;;;11.40;99.90;;;;;;5091034;28;20024;-76
2023/03/22 04:25:21;;;;;;;16.20;11.95;;;11.50;99.90;;;;;;5091967;28;20515;-76
2023/03/22 04:27:49;;;;;;;13.57;10.07;;;11.50;99.90;;;;;;5091979;28;20038;-75
2023/03/22 04:30:17;;;;;;;13.80;10.75;;;11.50;99.90;;;;;;5092367;28;20498;-77
2023/03/22 04:32:44;;;;;;;13.52;10.77;;;11.50;99.90;;;;;;5083756;28;20142;-76
2023/03/22 04:35:10;;;;;;;15.23;11.25;;;11.50;99.90;;;;;;5075991;28;20056;-76
2023/03/22 04:37:35;;;;;;;14.65;10.45;;;11.50;99.90;;;;;;5089090;28;20089;-76
2023/03/22 04:40:05;;;;;;;14.70;10.85;;;11.60;99.90;;;;;;5091904;28;20040;-76
2023/03/22 04:42:31;;;;;;;14.27;10.95;;;11.60;99.90;;;;;;5086534;28;20031;-76
2023/03/22 04:44:56;;;;;;;15.20;11.43;;;11.60;99.90;;;;;;5090446;28;20028;-75
2023/03/22 04:47:22;;;;;;;13.57;11.45;;;11.60;99.90;;;;;;5089323;28;20032;-75
2023/03/22 04:49:48;;;;;;;13.77;11.23;;;11.60;99.90;;;;;;5089256;28;20016;-75
2023/03/22 04:52:14;;;;;;;16.83;12.43;;;11.60;99.90;;;;;;5085956;28;20472;-75
2023/03/22 04:54:40;;;;;;;17.33;11.32;;;11.60;99.90;;;;;;5091093;28;20475;-75
2023/03/22 04:57:05;;;;;;;16.13;11.30;;;11.60;99.90;;;;;;5091140;28;20081;-75
2023/03/22 04:59:31;;;;;;;15.60;12.10;;;11.60;99.90;;;;;;5092437;28;20056;-75
2023/03/22 05:01:57;;;;;;;16.48;11.90;;;11.60;99.90;;;;;;5090937;28;20073;-75
2023/03/22 05:04:23;;;;;;;17.85;13.77;;;11.60;99.90;;;;;;5091624;28;20102;-76
2023/03/22 05:06:52;;;;;;;16.00;11.95;;;11.60;99.90;;;;;;5080915;28;20043;-76
2023/03/22 05:09:18;;;;;;;16.98;12.35;;;11.60;99.90;;;;;;5083810;28;20438;-76
2023/03/22 05:11:43;;;;;;;16.48;12.20;;;11.50;99.90;;;;;;5086948;28;20027;-77
2023/03/22 05:14:09;;;;;;;16.80;12.00;;;11.60;99.90;;;;;;5091647;28;20035;-77
2023/03/22 05:16:35;;;;;;;17.10;12.45;;;11.60;99.90;;;;;;5085421;28;20028;-77
2023/03/22 05:19:01;;;;;;;15.40;11.82;;;11.50;99.90;;;;;;5088849;28;20368;-77
2023/03/22 05:21:28;;;;;;;15.05;11.68;;;11.50;99.90;;;;;;5092057;28;20071;-77
2023/03/22 05:23:55;;;;;;;15.65;12.20;;;11.50;99.90;;;;;;5091488;28;20032;-77
2023/03/22 05:26:23;;;;;;;18.70;12.55;;;11.50;99.90;;;;;;5091057;28;20365;-77
2023/03/22 05:28:50;;;;;;;15.25;11.65;;;11.50;99.90;;;;;;5088236;28;20110;-77
2023/03/22 05:31:16;;;;;;;20.30;12.45;;;11.50;99.90;;;;;;5090361;28;20110;-76
2023/03/22 05:33:45;;;;;;;14.27;11.50;;;11.60;99.90;;;;;;5087373;28;20116;-77
2023/03/22 05:36:11;;;;;;;12.77;10.73;;;11.50;99.90;;;;;;5091470;28;20046;-76
2023/03/22 05:38:37;;;;;;;17.15;11.80;;;11.50;99.90;;;;;;5090002;28;20028;-76
2023/03/22 05:41:02;;;;;;;15.98;11.77;;;11.50;99.90;;;;;;5085863;28;20082;-76
2023/03/22 05:43:28;;;;;;;16.20;12.75;;;11.50;99.90;;;;;;5090134;28;20020;-76
2023/03/22 05:45:54;;;;;;;16.48;12.45;;;11.50;99.90;;;;;;5091199;28;20042;-76
2023/03/22 05:48:19;;;;;;;18.00;12.20;;;11.50;99.90;;;;;;5089521;28;20031;-76
2023/03/22 05:50:46;;;;;;;18.13;13.05;;;11.50;99.90;;;;;;5087174;28;20032;-76
2023/03/22 05:53:12;;;;;;;17.58;12.63;;;11.50;99.90;;;;;;5088981;28;20032;-76
2023/03/22 05:55:38;;;;;;;16.23;12.38;;;11.50;99.90;;;;;;5090116;28;20368;-75
2023/03/22 05:58:04;;;;;;;15.85;12.80;;;11.50;99.90;;;;;;5089705;28;20394;-77
2023/03/22 06:00:33;;;;;;;17.25;12.30;;;11.60;99.90;;;;;;5088240;28;20047;-77
2023/03/22 06:03:04;;;;;;;16.88;12.98;;;11.60;99.90;;;;;;5091406;28;20052;-77
2023/03/22 06:05:31;;;;;;;17.13;12.80;;;11.60;99.90;;;;;;5095674;28;20034;-77
2023/03/22 06:07:58;;;;;;;19.20;13.00;;;11.50;99.90;;;;;;5090024;28;20129;-76
2023/03/22 06:10:25;;;;;;;16.80;12.73;;;11.60;99.90;;;;;;5089079;28;20035;-76
2023/03/22 06:12:51;;;;;;;17.88;13.05;;;11.60;99.90;;;;;;5088739;28;20040;-77
2023/03/22 06:15:17;;;;;;;17.08;12.50;;;11.60;99.90;;;;;;5089594;28;20380;-77
2023/03/22 06:17:43;;;;;;;18.70;13.45;;;11.60;99.90;;;;;;5090173;28;20028;-77
2023/03/22 06:20:12;;;;;;;21.02;13.77;;;11.60;99.90;;;;;;5094583;28;20143;-77
2023/03/22 06:22:38;;;;;;;19.13;12.43;;;11.60;99.90;;;;;;5084434;28;20139;-72
2023/03/22 06:25:05;;;;;;;17.90;13.13;;;11.60;99.90;;;;;;5090135;28;20020;-74
2023/03/22 06:27:32;;;;;;;23.40;14.00;;;11.60;99.90;;;;;;5079069;28;20020;-73
2023/03/22 06:29:57;;;;;;;18.90;13.60;;;11.60;99.90;;;;;;5080754;28;20043;-70
2023/03/22 06:32:23;;;;;;;19.65;13.75;;;11.60;99.90;;;;;;5089909;28;20032;-69
2023/03/22 06:34:49;;;;;;;18.77;13.23;;;11.70;99.90;;;;;;5097512;28;20368;-66
2023/03/22 06:37:15;;;;;;;16.85;12.95;;;11.70;99.90;;;;;;5087658;28;20182;-70
2023/03/22 06:39:41;;;;;;;18.20;13.52;;;11.70;99.90;;;;;;5085662;28;20543;-71
2023/03/22 06:42:07;;;;;;;20.08;14.25;;;11.80;99.90;;;;;;5091091;28;20111;-70
2023/03/22 06:44:33;;;;;;;21.02;13.95;;;11.80;99.90;;;;;;5092137;28;20148;-71
2023/03/22 06:46:59;;;;;;;21.80;14.30;;;11.80;99.90;;;;;;5090613;28;20020;-70
2023/03/22 06:49:25;;;;;;;18.73;14.25;;;11.80;99.90;;;;;;5091749;28;20030;-69
2023/03/22 06:51:51;;;;;;;17.67;13.23;;;11.80;99.90;;;;;;5111859;28;20104;-70
2023/03/22 06:54:16;;;;;;;18.25;13.55;;;11.90;99.90;;;;;;5097331;28;20132;-69
2023/03/22 06:56:42;;;;;;;21.48;14.50;;;11.90;99.90;;;;;;5083128;28;20021;-69
2023/03/22 06:59:08;;;;;;;16.30;12.43;;;11.90;99.90;;;;;;5088391;28;20044;-67
2023/03/22 07:01:33;;;;;;;18.30;13.20;;;12.00;99.90;;;;;;5096662;28;20505;-71
2023/03/22 07:03:59;;;;;;;18.17;13.38;;;12.00;99.90;;;;;;5093019;28;20028;-71
2023/03/22 07:06:25;;;;;;;18.02;13.27;;;12.00;99.90;;;;;;5112200;28;20390;-70
2023/03/22 07:08:50;;;;;;;19.42;13.52;;;12.10;99.90;;;;;;5094302;28;20046;-69
2023/03/22 07:11:16;;;;;;;20.67;13.55;;;12.10;99.90;;;;;;5100007;28;20093;-70
2023/03/22 07:13:41;;;;;;;18.98;13.40;;;12.20;99.90;;;;;;5081290;28;20032;-70
2023/03/22 07:16:08;;;;;;;18.25;13.75;;;12.20;99.90;;;;;;5092746;28;20038;-69
2023/03/22 07:18:34;;;;;;;21.20;13.90;;;12.30;99.90;;;;;;5093099;28;20036;-69
2023/03/22 07:21:00;;;;;;;19.23;13.65;;;12.30;99.90;;;;;;5090230;28;20094;-69
2023/03/22 07:23:25;;;;;;;16.73;13.02;;;12.30;99.90;;;;;;5099700;28;20476;-69
2023/03/22 07:25:51;;;;;;;19.27;12.82;;;12.40;99.90;;;;;;5086676;28;20038;-71
2023/03/22 07:28:17;;;;;;;19.88;13.52;;;12.50;99.90;;;;;;5080775;28;20040;-71
2023/03/22 07:30:42;;;;;;;16.63;13.25;;;12.50;99.90;;;;;;5082753;28;20467;-72
2023/03/22 07:33:09;;;;;;;19.20;14.90;;;12.50;99.90;;;;;;5089150;28;20028;-68
2023/03/22 07:35:36;;;;;;;18.98;13.32;;;12.60;99.90;;;;;;5092167;28;20036;-70
2023/03/22 07:38:03;;;;;;;18.33;13.10;;;12.60;99.90;;;;;;5087174;28;20054;-70
2023/03/22 07:40:29;;;;;;;16.90;11.82;;;12.70;99.90;;;;;;5104696;28;20046;-70
2023/03/22 07:42:55;;;;;;;16.50;12.10;;;12.80;99.90;;;;;;5083101;28;20060;-70
2023/03/22 07:45:21;;;;;;;16.17;11.90;;;12.80;99.90;;;;;;5087974;28;20075;-70
2023/03/22 07:47:48;;;;;;;17.15;13.45;;;12.90;99.90;;;;;;5084549;28;20023;-71
2023/03/22 07:50:16;;;;;;;17.38;11.88;;;13.00;99.90;;;;;;5091266;28;20111;-70
2023/03/22 07:52:42;;;;;;;16.15;12.40;;;13.00;99.90;;;;;;5091855;28;20035;-71
2023/03/22 07:55:11;;;;;;;19.10;11.82;;;13.10;99.90;;;;;;5102026;28;20024;-71
2023/03/22 07:57:37;;;;;;;17.75;12.45;;;13.20;99.90;;;;;;5092946;28;20040;-71
2023/03/22 08:00:08;;;;;;;14.32;11.85;;;13.30;99.90;;;;;;5097353;28;20047;-67
2023/03/22 08:02:34;;;;;;;14.60;10.82;;;13.40;99.90;;;;;;5089631;28;20106;-69
2023/03/22 08:05:00;;;;;;;16.52;11.00;;;13.50;99.90;;;;;;5084005;28;20120;-69
2023/03/22 08:07:26;;;;;;;16.73;10.65;;;13.60;99.90;;;;;;5087105;28;20032;-69
2023/03/22 08:09:51;;;;;;;16.98;9.88;;;13.60;99.90;;;;;;5090724;28;20035;-69
2023/03/22 08:12:17;;;;;;;16.55;11.57;;;13.70;99.90;;;;;;5079621;28;20078;-68
2023/03/22 08:14:49;;;;;;;13.23;10.13;;;13.70;99.90;;;;;;5098873;28;20097;-68
2023/03/22 08:17:14;;;;;;;13.20;10.30;;;13.80;99.90;;;;;;5092259;28;20039;-68
2023/03/22 08:19:40;;;;;;;15.50;9.90;;;13.80;99.90;;;;;;5086570;28;20028;-68
2023/03/22 08:22:06;;;;;;;14.00;9.35;;;13.90;99.90;;;;;;5091769;28;20043;-68
2023/03/22 08:24:32;;;;;;;14.20;9.43;;;14.00;99.90;;;;;;5088856;28;20114;-68
2023/03/22 08:26:58;;;;;;;17.20;10.25;;;14.00;99.90;;;;;;5085421;28;20628;-68
2023/03/22 08:29:26;;;;;;;14.05;9.65;;;14.10;99.90;;;;;;5075775;28;20117;-69
2023/03/22 08:31:52;;;;;;;13.95;10.30;;;14.20;99.90;;;;;;5091876;28;20069;-69
2023/03/22 08:34:19;;;;;;;13.45;9.90;;;14.30;99.90;;;;;;5098690;28;20115;-69
2023/03/22 08:36:45;;;;;;;12.90;9.63;;;14.40;99.90;;;;;;5087674;28;20020;-70
2023/03/22 08:39:10;;;;;;;15.43;9.70;;;14.50;99.90;;;;;;5072579;28;20491;-70
2023/03/22 08:41:37;;;;;;;11.27;8.32;;;14.50;99.90;;;;;;5096480;28;20535;-70
2023/03/22 08:44:02;;;;;;;13.50;8.68;;;14.60;99.90;;;;;;5094250;28;20027;-69
2023/03/22 08:46:28;;;;;;;14.18;9.35;;;14.60;99.90;;;;;;5086823;28;20039;-70
2023/03/22 08:48:54;;;;;;;14.57;9.80;;;14.80;99.90;;;;;;5091809;28;20077;-70
2023/03/22 08:51:21;;;;;;;13.60;8.70;;;14.80;99.90;;;;;;5086448;28;20035;-70
2023/03/22 08:53:48;;;;;;;11.05;8.15;;;14.90;99.90;;;;;;5078699;28;20086;-69
2023/03/22 08:56:15;;;;;;;9.98;8.27;;;15.00;99.90;;;;;;5094207;28;20032;-70
2023/03/22 08:58:45;;;;;;;10.40;8.13;;;15.00;99.90;;;;;;5100537;28;20059;-70
2023/03/22 09:01:12;;;;;;;11.25;8.55;;;15.10;99.90;;;;;;5086167;28;20325;-70
2023/03/22 09:03:37;;;;;;;10.40;7.93;;;15.20;99.90;;;;;;5104087;28;20085;-70
2023/03/22 09:06:03;;;;;;;11.35;8.40;;;15.30;99.80;;;;;;5099643;28;20475;-70
2023/03/22 09:08:29;;;;;;;10.40;7.22;;;15.40;99.70;;;;;;5108700;28;20405;-70
2023/03/22 09:10:55;;;;;;;9.70;7.75;;;15.50;99.50;;;;;;5108461;28;20055;-70
2023/03/22 09:13:20;;;;;;;10.25;7.93;;;15.50;99.30;;;;;;5103475;28;20550;-70
2023/03/22 09:15:46;;;;;;;10.50;7.85;;;15.60;99.10;;;;;;5090949;28;20068;-70
2023/03/22 09:18:13;;;;;;;14.18;8.25;;;15.70;99.00;;;;;;5092638;28;20028;-69
2023/03/22 09:20:39;;;;;;;9.35;7.00;;;15.70;98.80;;;;;;5105714;28;20035;-70
2023/03/22 09:23:05;;;;;;;9.35;8.35;;;15.80;98.70;;;;;;5101376;28;20031;-70
2023/03/22 09:25:31;;;;;;;12.48;8.15;;;15.90;98.80;;;;;;5099645;28;20055;-70
2023/03/22 09:27:57;;;;;;;10.73;8.35;;;15.90;98.50;;;;;;5100862;28;20058;-69
2023/03/22 09:30:23;;;;;;;10.55;7.40;;;16.00;98.40;;;;;;5086277;28;22423;-69
2023/03/22 09:32:48;;;;;;;11.07;6.88;;;16.00;98.40;;;;;;5090033;28;20059;-70
2023/03/22 09:35:14;;;;;;;11.48;7.50;;;16.10;98.40;;;;;;5108586;28;20031;-69
2023/03/22 09:37:40;;;;;;;10.52;6.97;;;16.20;98.30;;;;;;5105639;28;20031;-69
2023/03/22 09:40:06;;;;;;;10.13;7.57;;;16.30;98.30;;;;;;5104576;28;20047;-70
2023/03/22 09:42:38;;;;;;;9.38;7.72;;;16.50;98.30;;;;;;5105266;28;20383;-71
2023/03/22 09:45:11;;;;;;;10.27;7.28;;;16.60;98.00;;;;;;5107685;28;20035;-70
2023/03/22 09:47:41;;;;;;;10.68;7.97;;;16.60;97.80;;;;;;5094377;28;20052;-70
2023/03/22 09:50:12;;;;;;;9.15;7.03;;;16.70;97.80;;;;;;5095101;28;20039;-70
2023/03/22 09:52:39;;;;;;;11.30;7.75;;;16.80;97.60;;;;;;5105552;28;20031;-69
2023/03/22 09:55:21;;;;;;;8.57;6.47;;;16.80;97.40;;;;;;5095648;28;20035;-69
2023/03/22 09:58:04;;;;;;;10.18;7.55;;;17.00;97.20;;;;;;5071891;28;20039;-70
2023/03/22 10:00:52;;;;;;;9.75;6.68;;;17.00;96.90;;;;;;5100430;28;20049;-69
2023/03/22 10:03:46;;;;;;;9.60;7.00;;;17.10;96.80;;;;;;5095611;28;20047;-70
2023/03/22 10:06:19;;;;;;;12.88;8.13;;;17.10;96.40;;;;;;5093268;28;20038;-70
2023/03/22 10:09:15;;;;;;;8.52;6.20;;;17.20;96.40;;;;;;5093061;28;20039;-70
2023/03/22 10:11:50;;;;;;;8.27;6.00;;;17.20;96.60;;;;;;5077738;28;20556;-70
2023/03/22 10:14:29;;;;;;;9.60;6.57;;;17.30;96.10;;;;;;5090823;28;20033;-70
2023/03/22 10:16:57;;;;;;;9.52;6.80;;;17.30;96.00;;;;;;5089657;28;20429;-70
2023/03/22 10:19:32;;;;;;;13.07;6.88;;;17.40;95.90;;;;;;5086287;28;20146;-70
2023/03/22 10:22:01;;;;;;;9.38;6.63;;;17.50;95.60;;;;;;5092202;28;20040;-70
2023/03/22 10:24:36;;;;;;;9.15;6.15;;;17.60;95.40;;;;;;5104273;28;20042;-70
2023/03/22 10:27:02;;;;;;;9.27;6.00;;;17.60;95.20;;;;;;5095127;28;20455;-70
2023/03/22 10:29:42;;;;;;;8.05;6.43;;;17.70;95.30;;;;;;5089869;28;20056;-69
2023/03/22 10:32:17;;;;;;;7.72;5.45;;;17.70;95.30;;;;;;5105455;28;20027;-70
2023/03/22 10:34:43;;;;;;;8.50;5.15;;;17.80;95.10;;;;;;5087815;28;20034;-70
2023/03/22 10:37:19;;;;;;;8.63;5.32;;;17.80;95.00;;;;;;5104842;28;20498;-71
2023/03/22 10:39:48;;;;;;;8.10;5.65;;;17.80;94.90;;;;;;5089175;28;20097;-70
2023/03/22 10:42:19;;;;;;;7.50;5.60;;;17.90;94.80;;;;;;5105289;28;20035;-70
2023/03/22 10:44:49;;;;;;;8.13;5.65;;;18.00;94.60;;;;;;5107537;28;20031;-70
2023/03/22 10:47:18;;;;;;;8.13;5.55;;;18.00;94.40;;;;;;5094360;27;20032;-69
2023/03/22 10:49:53;;;;;;;7.60;5.45;;;18.10;94.40;;;;;;5101976;28;20031;-70
2023/03/22 10:52:50;;;;;;;8.43;5.90;;;18.10;94.40;;;;;;5099935;28;20071;-69
2023/03/22 10:55:16;;;;;;;12.35;5.07;;;18.20;94.30;;;;;;5094034;28;20024;-69
2023/03/22 10:57:50;;;;;;;7.53;4.93;;;18.30;94.10;;;;;;5076346;28;20035;-70
2023/03/22 11:00:16;;;;;;;9.93;5.88;;;18.30;93.80;;;;;;5097322;28;20070;-69
2023/03/22 11:02:57;;;;;;;7.32;5.07;;;18.30;93.80;;;;;;5100582;28;20056;-72
2023/03/22 11:05:28;;;;;;;6.88;5.20;;;18.30;93.60;;;;;;5096208;28;20107;-72
2023/03/22 11:07:57;;;;;;;6.70;4.72;;;18.40;93.30;;;;;;5082373;28;20069;-71
2023/03/22 11:10:27;;;;;;;6.60;4.20;;;18.40;93.00;;;;;;5112866;28;20404;-71
2023/03/22 11:13:12;;;;;;;7.32;4.47;;;18.40;92.80;;;;;;5102373;28;20028;-71
2023/03/22 11:15:50;;;;;;;9.07;3.95;;;18.50;92.80;;;;;;5084998;28;20479;-71
2023/03/22 11:18:16;;;;;;;6.43;4.32;;;18.50;92.70;;;;;;5093268;28;20366;-71
2023/03/22 11:20:56;;;;;;;6.55;4.45;;;18.50;92.50;;;;;;5101727;28;20039;-71
2023/03/22 11:23:24;;;;;;;7.43;4.25;;;18.50;92.50;;;;;;5089785;28;20020;-71
2023/03/22 11:25:54;;;;;;;6.70;4.50;;;18.50;92.40;;;;;;5095602;28;20036;-71
2023/03/22 11:28:25;;;;;;;7.20;4.57;;;18.50;92.40;;;;;;5106722;28;20035;-69
2023/03/22 11:31:12;;;;;;;7.25;4.65;;;18.60;92.40;;;;;;5095648;28;20163;-69
2023/03/22 11:33:54;;;;;;;5.93;4.13;;;18.60;92.20;;;;;;5099524;28;20407;-69
2023/03/22 11:36:20;;;;;;;5.40;4.35;;;18.60;92.20;;;;;;5099984;28;20115;-70
2023/03/22 11:38:46;;;;;;;5.45;3.97;;;18.60;92.00;;;;;;5100026;28;20550;-70
2023/03/22 11:41:23;;;;;;;12.68;4.00;;;18.60;91.80;;;;;;5089577;28;20479;-70
2023/03/22 11:44:00;;;;;;;5.30;3.42;;;18.60;91.70;;;;;;5095617;28;20065;-70
2023/03/22 11:46:25;;;;;;;5.90;3.33;;;18.60;91.30;;;;;;5091463;28;20399;-70
2023/03/22 11:48:57;;;;;;;5.38;3.03;;;18.60;91.20;;;;;;5093332;28;20035;-70
2023/03/22 11:51:31;;;;;;;5.72;3.63;;;18.60;90.90;;;;;;5110210;28;20028;-70
2023/03/22 11:54:12;;;;;;;4.57;2.95;;;18.60;90.70;;;;;;5100304;28;20502;-70
2023/03/22 11:56:44;;;;;;;5.93;3.83;;;18.60;90.70;;;;;;5106916;28;20153;-70
2023/03/22 11:59:22;;;;;;;5.93;3.08;;;18.60;90.70;;;;;;5098383;28;20056;-69
2023/03/22 12:02:09;;;;;;;8.15;4.95;;;18.60;90.60;;;;;;5099119;28;20028;-70
2023/03/22 12:04:38;;;;;;;5.00;3.13;;;18.60;90.50;;;;;;5092473;28;20089;-71
2023/03/22 12:07:18;;;;;;;4.90;3.75;;;18.60;90.30;;;;;;5091608;28;20024;-71
2023/03/22 12:10:13;;;;;;;6.32;3.30;;;18.70;90.20;;;;;;5077916;28;20119;-69
2023/03/22 12:12:45;;;;;;;4.68;3.10;;;18.70;90.30;;;;;;5092626;28;20044;-69
2023/03/22 12:15:10;;;;;;;20.60;12.60;;;18.60;90.10;;;;;;5092605;28;20028;-69
2023/03/22 12:18:01;;;;;;;12.38;6.82;;;18.70;90.20;;;;;;5078116;28;20491;-69
2023/03/22 12:20:36;;;;;;;7.00;3.65;;;18.70;90.20;;;;;;5094388;28;20031;-70
2023/03/22 12:23:14;;;;;;;5.93;3.63;;;18.70;89.90;;;;;;5081549;28;20498;-69
2023/03/22 12:25:43;;;;;;;5.82;3.13;;;18.70;89.30;;;;;;5105997;28;20104;-68
2023/03/22 12:28:16;;;;;;;9.68;4.20;;;18.60;89.10;;;;;;5089428;28;20031;-68
2023/03/22 12:30:47;;;;;;;4.65;3.25;;;18.60;89.30;;;;;;5098769;28;20061;-69
2023/03/22 12:33:28;;;;;;;6.57;3.58;;;18.60;89.30;;;;;;5108608;28;20034;-68
2023/03/22 12:36:03;;;;;;;5.93;3.90;;;18.60;89.10;;;;;;5111144;28;20391;-69
2023/03/22 12:38:40;;;;;;;8.77;6.13;;;18.60;89.20;;;;;;5092742;28;20028;-69
2023/03/22 12:41:10;;;;;;;6.88;5.32;;;18.60;89.40;;;;;;5082475;28;20101;-69
2023/03/22 12:43:51;;;;;;;7.00;5.47;;;18.60;89.50;;;;;;5105070;28;20020;-69
2023/03/22 12:46:25;;;;;;;19.55;10.38;;;18.50;89.00;;;;;;5084110;28;20047;-69